KDHT

Dalhart Municipal Airport

Dalhart, Texas, USA
METAR KDHT 140153Z AUTO 36012KT 10SM CLR 00/M14 A3020 RMK AO2 SLP235 T00001144
Observed Flight Rules
Dec-14 @ 01:53 UTC (an hour ago) Visual Flight Rules
Wind Visibility Clouds
360° at 12 knots 10 miles
  • Clear skies
Temperatures Readings
Current 0°C / 32°F
Dewpoint -14°C / 7°F
Humidity 34%
Altimeter 30.2" Hg
Pressure 1023.5 hPa
Elevation 1217
METAR KDHT 140153Z AUTO 36012KT 10SM CLR 00/M14 A3020 RMK AO2 SLP235 T00001144
Observed Flight Rules
Dec-14 @ 01:53 UTC
(an hour ago)
VFR
Wind Visibility
360° at 12 knots 10 miles
Clouds
  • Clear skies
Temperature Dewpoint
0°C / 32°F -14°C / 7°F
Humidity Altimeter Pressure
34% 30.2" Hg 1023.5 hPa